Palmdale, CA (93552)

3:31 PM PST on December 21, 2014 (GMT -0800)
Mount Emma | Change Station
CLOSE
Current Station
Personal Weather Station
Location: Palmdale, CA
Elevation: 3300 ft
Nearby Weather Stations

Elev 3300 ft 34.51 °N, 118.05 °W | Updated 4 minutes ago

Clear
Clear
60.1 °F
Feels Like 60.1 °F
N
4.0
Wind Variable Wind from WNW
Gusts 14.0 mph

Today
High -- | Low -- °F
--% Chance of Precip.
Yesterday
High -- | Low -- °F
Precip. -- in
6:55 AM 4:45 PM
Waning Crescent, 0% visible
Pressure 30.10 in
Visibility 10.0 miles
Clouds Clear
Dew Point 43 °F
Humidity 53%
Rainfall -999.00 in
Snow Depth Not available.
UV 1 out of 12
Pollen 4.00 out of 12
Air Quality Not available.
Flu Activity Not available.
METAR KPMD 212253Z AUTO 31017G22KT 10SM CLR 16/07 A3012 RMK AO2 SLP193 T01610067

More Conditions Fewer Conditions

Pressure 30.10 in
Visibility 10.0 miles
Clouds Clear
Dew Point 43 °F
Humidity 53%
Rainfall -999.00 in
Snow Depth Not available.
UV 1 out of 12
Pollen 4.00 out of 12
Air Quality Not available.
Flu Activity Not available.
METAR KPMD 212253Z AUTO 31017G22KT 10SM CLR 16/07 A3012 RMK AO2 SLP193 T01610067

More Conditions Fewer Conditions

10-Day Weather Forecast

Almanac

Astronomy

Dec. 21, 2014 Rise Set
Actual Time
Civil Twilight
Nautical Twilight
Astronomical Twilight
Moon
Length of Visible Light
Length of Day
Tomorrow will be .
, % of the Moon is Illuminated

Today's Extremes

State Highs State Lows

Community

WunderPhotos

Upload Photos

1,779,503 photos uploaded!

WunderBlogs® & News

Nearby

Air Quality

  Air Quality AQ Index Pollutant
Not available.

Snow Depth

Station Depth Elevation

Earthquake Activity

City Distance Mag. Time & Date
Minimum magnitude displayed is 2.5.

Coastal Water Temperatures

Place Temperature

Nearby Weather Stations